createdAt,value
2017-09-03T00:02:12.028Z,12.99
2017-09-03T00:04:41.109Z,12.97
2017-09-03T00:07:10.208Z,12.98
2017-09-03T00:09:39.308Z,12.98
2017-09-03T00:12:08.365Z,12.96
2017-09-03T00:14:37.458Z,12.98
2017-09-03T00:17:06.516Z,12.98
2017-09-03T00:19:35.556Z,12.94
2017-09-03T00:22:04.697Z,12.88
2017-09-03T00:24:33.786Z,12.87
2017-09-03T00:27:02.892Z,12.89
2017-09-03T00:29:31.982Z,12.88
2017-09-03T00:32:01.373Z,12.85
2017-09-03T00:34:30.462Z,12.83
2017-09-03T00:36:59.518Z,12.81
2017-09-03T00:39:28.567Z,12.85
2017-09-03T00:41:57.636Z,12.81
2017-09-03T00:44:26.693Z,12.81
2017-09-03T00:46:55.765Z,12.76
2017-09-03T00:49:24.830Z,12.76
2017-09-03T00:51:53.927Z,12.76
2017-09-03T00:54:22.983Z,12.71
2017-09-03T00:56:52.049Z,12.68
2017-09-03T00:59:21.131Z,12.69
2017-09-03T01:01:50.565Z,12.67
2017-09-03T01:04:19.648Z,12.61
2017-09-03T01:06:48.724Z,12.53
2017-09-03T01:09:17.834Z,12.53
2017-09-03T01:11:46.904Z,12.55
2017-09-03T01:14:16.041Z,12.59
2017-09-03T01:16:45.130Z,12.58
2017-09-03T01:19:14.244Z,12.56
2017-09-03T01:21:43.302Z,12.56
2017-09-03T01:24:12.357Z,12.55
2017-09-03T01:26:41.475Z,12.52
2017-09-03T01:29:10.526Z,12.46
2017-09-03T01:31:39.618Z,12.42
2017-09-03T01:34:08.678Z,12.38
2017-09-03T01:36:37.761Z,12.35
2017-09-03T01:39:06.881Z,12.28
2017-09-03T01:41:36.001Z,12.29
2017-09-03T01:44:05.053Z,12.26
2017-09-03T01:46:34.252Z,12.24
2017-09-03T01:49:03.397Z,12.25
2017-09-03T01:51:32.449Z,12.22
2017-09-03T01:54:01.540Z,12.24
2017-09-03T01:56:30.591Z,12.26
2017-09-03T01:58:59.643Z,12.24
2017-09-03T02:01:28.728Z,12.22
2017-09-03T02:03:57.929Z,12.20
2017-09-03T02:06:27.026Z,12.18
2017-09-03T02:08:56.079Z,12.12
2017-09-03T02:11:25.177Z,12.11
2017-09-03T02:13:54.242Z,12.08
2017-09-03T02:16:23.316Z,12.09
2017-09-03T02:18:52.359Z,12.12
2017-09-03T02:21:21.420Z,12.12
2017-09-03T02:23:50.505Z,12.12
2017-09-03T02:26:19.560Z,12.10
2017-09-03T02:28:48.638Z,12.08
2017-09-03T02:31:17.752Z,12.07
2017-09-03T02:33:46.802Z,12.06
2017-09-03T02:36:15.857Z,12.06
2017-09-03T02:38:44.944Z,12.06
2017-09-03T02:41:13.997Z,12.04
2017-09-03T02:43:43.062Z,11.98
2017-09-03T02:46:12.140Z,11.95
2017-09-03T02:48:41.439Z,11.93
2017-09-03T02:51:10.588Z,11.85
2017-09-03T02:53:39.631Z,11.80
2017-09-03T02:56:09.270Z,11.79
2017-09-03T02:58:38.325Z,11.79
2017-09-03T03:01:07.466Z,11.73
2017-09-03T03:03:36.501Z,11.72
2017-09-03T03:06:05.656Z,11.72
2017-09-03T03:08:34.756Z,11.75
2017-09-03T03:11:03.860Z,11.75
2017-09-03T03:13:32.968Z,11.75
2017-09-03T03:16:02.047Z,11.74
2017-09-03T03:18:31.132Z,11.71
2017-09-03T03:21:00.251Z,11.70
2017-09-03T03:23:29.344Z,11.70
2017-09-03T03:25:58.421Z,11.69
2017-09-03T03:28:27.496Z,11.67
2017-09-03T03:30:57.469Z,11.70
2017-09-03T03:33:26.532Z,11.65
2017-09-03T03:35:55.678Z,11.64
2017-09-03T03:38:24.783Z,11.62
2017-09-03T03:40:53.837Z,11.63
2017-09-03T03:43:22.910Z,11.62
2017-09-03T03:45:52.005Z,11.57
2017-09-03T03:48:21.090Z,11.59
2017-09-03T03:50:50.260Z,11.58
2017-09-03T03:53:19.328Z,11.58
2017-09-03T03:55:48.408Z,11.54
2017-09-03T03:58:17.459Z,11.52
2017-09-03T04:00:46.521Z,11.52
2017-09-03T04:03:15.584Z,11.47
2017-09-03T04:05:44.644Z,11.46
2017-09-03T04:08:13.730Z,11.39
2017-09-03T04:10:42.788Z,11.39
2017-09-03T04:13:11.868Z,11.39
2017-09-03T04:15:40.935Z,11.40
2017-09-03T04:18:10.344Z,11.39
2017-09-03T04:20:39.398Z,11.39
2017-09-03T04:23:08.457Z,11.39
2017-09-03T04:25:37.852Z,11.39
2017-09-03T04:28:07.238Z,11.34
2017-09-03T04:30:36.487Z,11.31
2017-09-03T04:33:05.584Z,11.28
2017-09-03T04:35:34.647Z,11.27
2017-09-03T04:38:03.746Z,11.28
2017-09-03T04:40:33.018Z,11.28
2017-09-03T04:43:02.110Z,11.23
2017-09-03T04:45:31.170Z,11.19
2017-09-03T04:48:00.219Z,11.22
2017-09-03T04:50:29.316Z,11.23
2017-09-03T04:52:58.401Z,11.22
2017-09-03T04:55:27.502Z,11.23
2017-09-03T04:57:56.632Z,11.25
2017-09-03T05:00:25.689Z,11.23
2017-09-03T05:02:54.772Z,11.18
2017-09-03T05:05:23.845Z,11.14
2017-09-03T05:07:52.893Z,11.10
2017-09-03T05:10:21.960Z,11.06
2017-09-03T05:12:51.337Z,11.05
2017-09-03T05:15:20.453Z,11.06
2017-09-03T05:17:49.500Z,11.06
2017-09-03T05:20:18.539Z,11.09
2017-09-03T05:22:48.627Z,11.05
2017-09-03T05:25:17.732Z,11.09
2017-09-03T05:27:46.768Z,11.09
2017-09-03T05:30:16.582Z,11.08
2017-09-03T05:32:45.692Z,11.14
2017-09-03T05:35:14.767Z,11.15
2017-09-03T05:37:43.835Z,11.19
2017-09-03T05:40:12.978Z,11.26
2017-09-03T05:42:42.091Z,11.30
2017-09-03T05:45:11.169Z,11.30
2017-09-03T05:47:40.453Z,11.27
2017-09-03T05:50:10.320Z,11.29
2017-09-03T05:52:39.401Z,11.32
2017-09-03T05:55:08.497Z,11.37
2017-09-03T05:57:37.576Z,11.39
2017-09-03T06:00:06.660Z,11.36
2017-09-03T06:02:36.044Z,11.37
2017-09-03T06:05:05.144Z,11.41
2017-09-03T06:07:34.390Z,11.46
2017-09-03T06:10:03.451Z,11.50
2017-09-03T06:12:32.492Z,11.57
2017-09-03T06:15:01.570Z,11.57
2017-09-03T06:17:30.660Z,11.61
2017-09-03T06:19:59.727Z,11.68
2017-09-03T06:22:29.550Z,11.72
2017-09-03T06:24:58.901Z,11.79
2017-09-03T06:27:27.969Z,11.79
2017-09-03T06:29:57.044Z,11.88
2017-09-03T06:32:26.181Z,11.92
2017-09-03T06:34:55.353Z,11.96
2017-09-03T06:37:24.433Z,12.03
2017-09-03T06:39:54.275Z,12.13
2017-09-03T06:42:23.375Z,12.24
2017-09-03T06:44:52.476Z,12.34
2017-09-03T06:47:21.548Z,12.44
2017-09-03T06:49:50.637Z,12.50
2017-09-03T06:52:19.748Z,12.61
2017-09-03T06:54:48.832Z,12.74
2017-09-03T06:57:17.897Z,12.80
2017-09-03T06:59:46.976Z,12.92
2017-09-03T07:02:16.068Z,13.09
2017-09-03T07:04:45.404Z,13.22
2017-09-03T07:07:15.280Z,13.38
2017-09-03T07:09:44.368Z,13.52
2017-09-03T07:12:13.499Z,13.61
2017-09-03T07:14:42.632Z,13.74
2017-09-03T07:17:11.757Z,13.88
2017-09-03T07:19:40.810Z,13.91
2017-09-03T07:22:09.890Z,14.04
2017-09-03T07:24:38.962Z,14.20
2017-09-03T07:27:08.044Z,14.34
2017-09-03T07:29:37.189Z,14.49
2017-09-03T07:32:06.302Z,14.62
2017-09-03T07:34:35.378Z,14.79
2017-09-03T07:37:05.481Z,14.93
2017-09-03T07:39:35.467Z,15.06
2017-09-03T07:42:04.592Z,15.13
2017-09-03T07:44:34.427Z,15.22
2017-09-03T07:47:03.519Z,15.30
2017-09-03T07:49:33.002Z,15.42
2017-09-03T07:52:02.612Z,15.50
2017-09-03T07:54:31.683Z,15.60
2017-09-03T07:57:01.119Z,15.67
2017-09-03T07:59:30.175Z,15.73
2017-09-03T08:01:59.228Z,15.80
2017-09-03T08:04:28.324Z,15.93
2017-09-03T08:06:57.464Z,16.06
2017-09-03T08:09:26.539Z,16.21
2017-09-03T08:11:55.625Z,16.30
2017-09-03T08:14:24.736Z,16.39
2017-09-03T08:16:53.846Z,16.43
2017-09-03T08:19:22.909Z,16.50
2017-09-03T08:21:52.344Z,16.63
2017-09-03T08:24:22.279Z,16.72
2017-09-03T08:26:52.390Z,16.84
2017-09-03T08:29:21.707Z,16.95
2017-09-03T08:31:51.598Z,17.09
2017-09-03T08:34:20.711Z,17.24
2017-09-03T08:36:50.064Z,17.36
2017-09-03T08:39:19.122Z,17.49
2017-09-03T08:41:48.244Z,17.62
2017-09-03T08:44:17.368Z,17.73
2017-09-03T08:46:46.460Z,17.83
2017-09-03T09:08:28.932Z,18.68
2017-09-03T09:10:58.029Z,18.73
2017-09-03T09:13:27.113Z,18.80
2017-09-03T09:15:56.230Z,18.88
2017-09-03T09:18:25.309Z,18.90
2017-09-03T09:20:54.366Z,18.98
2017-09-03T09:23:23.465Z,19.05
2017-09-03T09:25:52.563Z,19.21
2017-09-03T09:28:21.717Z,19.32
2017-09-03T09:30:50.996Z,19.45
2017-09-03T09:33:20.092Z,19.52
2017-09-03T09:35:49.184Z,19.55
2017-09-03T09:38:18.267Z,19.59
2017-09-03T09:40:47.345Z,19.72
2017-09-03T09:43:16.407Z,19.83
2017-09-03T09:45:45.780Z,19.98
2017-09-03T09:48:14.819Z,20.13
2017-09-03T09:50:43.886Z,20.26
2017-09-03T09:53:12.968Z,20.09
2017-09-03T09:55:42.077Z,20.12
2017-09-03T09:58:11.228Z,20.21
2017-09-03T10:00:40.406Z,20.32
2017-09-03T10:03:09.500Z,20.42
2017-09-03T10:05:38.542Z,20.57
2017-09-03T10:08:07.681Z,20.68
2017-09-03T10:10:36.745Z,20.71
2017-09-03T10:13:05.844Z,20.70
2017-09-03T10:15:34.906Z,20.70
2017-09-03T10:18:04.012Z,20.74
2017-09-03T10:20:33.071Z,20.80
2017-09-03T10:23:02.178Z,20.87
2017-09-03T10:25:31.208Z,21.08
2017-09-03T10:28:00.301Z,21.31
2017-09-03T10:30:29.402Z,21.47
2017-09-03T10:32:58.489Z,21.63
2017-09-03T10:35:27.588Z,21.62
2017-09-03T10:37:56.612Z,21.63
2017-09-03T10:40:32.876Z,21.66
2017-09-03T10:43:10.584Z,21.64
2017-09-03T10:45:41.831Z,21.61
2017-09-03T10:48:12.334Z,21.42
2017-09-03T10:50:44.396Z,21.41
2017-09-03T10:53:13.472Z,21.28
2017-09-03T10:55:45.592Z,21.16
2017-09-03T10:58:15.554Z,21.07
2017-09-03T11:00:44.592Z,21.02
2017-09-03T11:03:15.366Z,21.13
2017-09-03T11:05:44.884Z,21.31
2017-09-03T11:08:15.805Z,21.48
2017-09-03T11:10:44.867Z,21.55
2017-09-03T11:13:13.972Z,21.52
2017-09-03T11:15:44.440Z,21.62
2017-09-03T11:18:15.141Z,21.71
2017-09-03T11:20:45.542Z,21.79
2017-09-03T11:23:15.448Z,21.83
2017-09-03T11:25:44.885Z,21.81
2017-09-03T11:28:13.955Z,21.76
2017-09-03T11:30:43.039Z,21.77
2017-09-03T11:33:14.358Z,21.79
2017-09-03T11:35:43.742Z,21.85
2017-09-03T11:38:12.917Z,21.92
2017-09-03T11:40:41.997Z,21.90
2017-09-03T11:43:12.341Z,21.92
2017-09-03T11:45:41.406Z,22.00
2017-09-03T11:48:10.807Z,22.08
2017-09-03T11:50:40.206Z,22.03
2017-09-03T11:53:09.257Z,21.95
2017-09-03T11:55:38.329Z,21.90
2017-09-03T11:58:07.457Z,21.93
2017-09-03T12:00:36.512Z,21.92
2017-09-03T12:03:05.642Z,21.89
2017-09-03T12:05:34.689Z,21.94
2017-09-03T12:08:03.752Z,21.99
2017-09-03T12:10:32.826Z,22.09
2017-09-03T12:13:01.907Z,22.16
2017-09-03T12:15:30.974Z,22.16
2017-09-03T12:18:00.210Z,22.16
2017-09-03T12:20:29.305Z,22.16
2017-09-03T12:22:58.329Z,22.15
2017-09-03T12:25:27.419Z,22.17
2017-09-03T12:27:56.497Z,22.18
2017-09-03T12:30:25.561Z,22.19
2017-09-03T12:32:54.643Z,22.24
2017-09-03T12:35:23.737Z,22.30
2017-09-03T12:37:52.804Z,22.31
2017-09-03T12:40:21.860Z,22.20
2017-09-03T12:42:51.024Z,22.16
2017-09-03T12:45:20.146Z,22.20
2017-09-03T12:47:49.229Z,22.12
2017-09-03T12:50:18.283Z,21.91
2017-09-03T12:52:47.378Z,21.69
2017-09-03T12:55:16.618Z,21.45
2017-09-03T12:57:45.957Z,21.29
2017-09-03T13:00:15.075Z,21.00
2017-09-03T13:02:44.317Z,20.85
2017-09-03T13:05:13.464Z,20.91
2017-09-03T13:07:42.568Z,21.10
2017-09-03T13:10:11.676Z,21.16
2017-09-03T13:12:40.740Z,21.27
2017-09-03T13:15:09.823Z,21.20
2017-09-03T13:17:38.894Z,21.07
2017-09-03T13:20:07.956Z,21.16
2017-09-03T13:22:37.176Z,21.14
2017-09-03T13:25:06.257Z,21.07
2017-09-03T13:27:35.314Z,21.00
2017-09-03T13:30:04.654Z,20.97
2017-09-03T13:32:33.757Z,21.05
2017-09-03T13:35:03.646Z,21.24
2017-09-03T13:37:32.712Z,21.38
2017-09-03T13:40:01.843Z,21.51
2017-09-03T13:42:31.037Z,21.60
2017-09-03T13:45:00.125Z,21.50
2017-09-03T13:47:29.216Z,21.40
2017-09-03T13:49:58.255Z,21.17
2017-09-03T13:52:27.335Z,21.04
2017-09-03T13:54:56.419Z,20.90
2017-09-03T13:57:25.602Z,20.89
2017-09-03T13:59:54.907Z,20.98
2017-09-03T14:02:23.981Z,21.01
2017-09-03T14:04:53.017Z,21.07
2017-09-03T14:07:22.069Z,21.17
2017-09-03T14:09:51.120Z,21.28
2017-09-03T14:12:20.944Z,21.33
2017-09-03T14:14:50.009Z,21.35
2017-09-03T14:17:19.124Z,21.34
2017-09-03T14:19:48.178Z,21.41
2017-09-03T14:22:17.267Z,21.50
2017-09-03T14:24:46.631Z,21.37
2017-09-03T14:27:15.686Z,21.37
2017-09-03T14:29:44.778Z,21.41
2017-09-03T14:32:13.838Z,21.51
2017-09-03T14:34:42.936Z,21.68
2017-09-03T14:37:12.017Z,21.56
2017-09-03T14:39:41.097Z,21.50
2017-09-03T14:42:10.567Z,21.52
2017-09-03T14:44:39.629Z,21.50
2017-09-03T14:47:09.078Z,21.46
2017-09-03T14:49:38.169Z,21.52
2017-09-03T14:52:07.267Z,21.60
2017-09-03T14:54:36.370Z,21.57
2017-09-03T14:57:05.767Z,21.56
2017-09-03T14:59:34.796Z,21.56
2017-09-03T15:02:03.906Z,21.62
2017-09-03T15:04:32.964Z,21.64
2017-09-03T15:07:02.041Z,21.71
2017-09-03T15:10:06.060Z,21.75
2017-09-03T15:12:36.099Z,21.78
2017-09-03T15:15:05.144Z,21.79
2017-09-03T15:17:34.220Z,21.83
2017-09-03T15:20:03.670Z,21.88
2017-09-03T15:22:32.771Z,21.95
2017-09-03T15:25:01.805Z,21.99
2017-09-03T15:27:30.947Z,21.96
2017-09-03T15:30:00.045Z,21.90
2017-09-03T15:32:29.139Z,21.94
2017-09-03T15:34:59.810Z,22.00
2017-09-03T15:37:29.455Z,22.07
2017-09-03T15:39:58.506Z,22.05
2017-09-03T15:42:27.616Z,22.08
2017-09-03T15:44:56.774Z,22.07
2017-09-03T15:47:25.837Z,22.04
2017-09-03T15:49:54.925Z,21.96
2017-09-03T15:52:24.061Z,21.92
2017-09-03T15:54:54.021Z,21.98
2017-09-03T15:57:23.677Z,22.01
2017-09-03T15:59:52.764Z,22.01
2017-09-03T16:02:21.873Z,22.04
2017-09-03T16:04:50.941Z,22.03
2017-09-03T16:07:20.032Z,22.00
2017-09-03T16:09:49.076Z,21.99
2017-09-03T16:12:18.183Z,21.99
2017-09-03T16:14:47.264Z,22.03
2017-09-03T16:17:16.357Z,22.01
2017-09-03T16:19:45.432Z,21.99
2017-09-03T16:22:14.525Z,21.99
2017-09-03T16:24:43.573Z,21.95
2017-09-03T16:27:12.909Z,21.88
2017-09-03T16:29:42.001Z,21.86
2017-09-03T16:32:11.241Z,21.82
2017-09-03T16:34:40.306Z,21.76
2017-09-03T16:37:09.733Z,21.66
2017-09-03T16:39:38.785Z,21.56
2017-09-03T16:42:07.863Z,21.51
2017-09-03T16:44:36.960Z,21.46
2017-09-03T16:47:06.099Z,21.39
2017-09-03T16:49:35.177Z,21.31
2017-09-03T16:52:04.822Z,21.24
2017-09-03T16:54:33.926Z,21.15
2017-09-03T16:57:03.015Z,21.10
2017-09-03T16:59:32.149Z,21.04
2017-09-03T17:02:01.261Z,20.98
2017-09-03T17:04:30.356Z,20.90
2017-09-03T17:06:59.678Z,20.86
2017-09-03T17:09:29.727Z,20.78
2017-09-03T17:11:59.117Z,20.69
2017-09-03T17:14:28.188Z,20.64
2017-09-03T17:16:57.277Z,20.57
2017-09-03T17:19:26.376Z,20.54
2017-09-03T17:21:55.467Z,20.46
2017-09-03T17:24:26.248Z,20.36
2017-09-03T17:26:55.322Z,20.32
2017-09-03T17:29:24.403Z,20.24
2017-09-03T17:31:56.119Z,20.16
2017-09-03T17:34:29.663Z,20.11
2017-09-03T17:37:08.660Z,20.05
2017-09-03T17:39:39.346Z,19.98
2017-09-03T17:42:08.480Z,19.91
2017-09-03T17:44:37.847Z,19.85
2017-09-03T17:47:07.058Z,19.71
2017-09-03T17:49:36.119Z,19.61
2017-09-03T17:52:05.207Z,19.56
2017-09-03T17:54:34.334Z,19.47
2017-09-03T17:57:03.427Z,19.39
2017-09-03T17:59:32.597Z,19.37
2017-09-03T18:02:02.290Z,19.32
2017-09-03T18:04:33.459Z,19.26
2017-09-03T18:07:03.456Z,19.18
2017-09-03T18:09:32.537Z,19.09
2017-09-03T18:12:01.587Z,19.02
2017-09-03T18:14:30.688Z,18.98
2017-09-03T18:16:59.744Z,18.91
2017-09-03T18:19:28.853Z,18.85
2017-09-03T18:21:57.950Z,18.80
2017-09-03T18:24:27.019Z,18.72
2017-09-03T18:26:56.092Z,18.61
2017-09-03T18:29:25.295Z,18.53
2017-09-03T18:31:55.678Z,18.41
2017-09-03T18:34:24.795Z,18.31
2017-09-03T18:36:55.116Z,18.26
2017-09-03T18:39:30.646Z,18.22
2017-09-03T18:41:59.701Z,18.15
2017-09-03T18:44:29.166Z,18.08
2017-09-03T18:46:58.252Z,18.03
2017-09-03T18:49:38.088Z,17.99
2017-09-03T18:52:11.407Z,17.92
2017-09-03T18:54:51.332Z,17.85
2017-09-03T18:57:22.902Z,17.79
2017-09-03T18:59:52.896Z,17.72
2017-09-03T19:02:23.090Z,17.64
2017-09-03T19:04:53.506Z,17.63
2017-09-03T19:07:22.689Z,17.60
2017-09-03T19:09:51.808Z,17.58
2017-09-03T19:12:21.556Z,17.56
2017-09-03T19:14:52.125Z,17.52
2017-09-03T19:17:21.176Z,17.47
2017-09-03T19:19:51.507Z,17.43
2017-09-03T19:22:20.765Z,17.37
2017-09-03T19:24:49.877Z,17.33
2017-09-03T19:27:19.275Z,17.27
2017-09-03T19:29:48.401Z,17.28
2017-09-03T19:32:17.517Z,17.23
2017-09-03T19:34:46.660Z,17.20
2017-09-03T19:37:15.776Z,17.17
2017-09-03T19:39:45.189Z,17.10
2017-09-03T19:42:14.265Z,17.06
2017-09-03T19:44:43.699Z,16.99
2017-09-03T19:47:12.779Z,16.94
2017-09-03T19:49:41.889Z,16.96
2017-09-03T19:52:11.285Z,16.94
2017-09-03T19:54:40.613Z,16.92
2017-09-03T19:57:09.742Z,16.90
2017-09-03T19:59:38.808Z,16.85
2017-09-03T20:02:07.995Z,16.84
2017-09-03T20:04:37.695Z,16.81
2017-09-03T20:07:06.789Z,16.80
2017-09-03T20:09:35.876Z,16.80
2017-09-03T20:12:05.007Z,16.78
2017-09-03T20:14:34.659Z,16.75
2017-09-03T20:17:03.765Z,16.71
2017-09-03T20:19:32.839Z,16.74
2017-09-03T20:22:01.909Z,16.73
2017-09-03T20:24:30.974Z,16.74
2017-09-03T20:27:00.031Z,16.76
2017-09-03T20:29:29.099Z,16.77
2017-09-03T20:31:58.144Z,16.74
2017-09-03T20:34:27.214Z,16.73
2017-09-03T20:36:56.530Z,16.73
2017-09-03T20:39:25.585Z,16.71
2017-09-03T20:41:54.680Z,16.72
2017-09-03T20:44:23.736Z,16.73
2017-09-03T20:46:52.840Z,16.76
2017-09-03T20:49:21.969Z,16.75
2017-09-03T20:51:51.089Z,16.73
2017-09-03T20:54:20.533Z,16.72
2017-09-03T20:56:49.610Z,16.74
2017-09-03T20:59:18.662Z,16.74
2017-09-03T21:01:47.765Z,16.72
2017-09-03T21:04:16.840Z,16.67
2017-09-03T21:06:45.902Z,16.61
2017-09-03T21:09:15.160Z,16.59
2017-09-03T21:11:44.577Z,16.52
2017-09-03T21:14:13.611Z,16.47
2017-09-03T21:16:42.689Z,16.44
2017-09-03T21:19:11.812Z,16.41
2017-09-03T21:21:40.849Z,16.34
2017-09-03T21:24:09.918Z,16.29
2017-09-03T21:26:38.988Z,16.25
2017-09-03T21:29:08.077Z,16.20
2017-09-03T21:31:37.153Z,16.19
2017-09-03T21:34:06.257Z,16.15
2017-09-03T21:36:35.309Z,16.07
2017-09-03T21:39:04.380Z,16.05
2017-09-03T21:41:33.449Z,16.01
2017-09-03T21:44:02.527Z,15.95
2017-09-03T21:46:31.609Z,15.92
2017-09-03T21:49:02.530Z,15.90
2017-09-03T21:51:32.561Z,15.88
2017-09-03T21:54:01.643Z,15.83
2017-09-03T21:56:30.702Z,15.80
2017-09-03T21:58:59.785Z,15.80
2017-09-03T22:01:28.837Z,15.75
2017-09-03T22:03:57.930Z,15.71
2017-09-03T22:06:27.016Z,15.67
2017-09-03T22:08:56.129Z,15.65
2017-09-03T22:11:26.534Z,15.62
2017-09-03T22:13:55.985Z,15.59
2017-09-03T22:16:25.091Z,15.56
2017-09-03T22:18:54.180Z,15.52
2017-09-03T22:21:23.216Z,15.51
2017-09-03T22:23:52.289Z,15.46
2017-09-03T22:26:21.374Z,15.44
2017-09-03T22:28:51.228Z,15.40
2017-09-03T22:31:20.275Z,15.38
2017-09-03T22:33:49.368Z,15.34
2017-09-03T22:36:18.427Z,15.28
2017-09-03T22:38:47.519Z,15.23
2017-09-03T22:41:17.227Z,15.22
2017-09-03T22:43:46.301Z,15.18
2017-09-03T22:46:15.383Z,15.16
2017-09-03T22:48:44.431Z,15.15
2017-09-03T22:51:13.505Z,15.15
2017-09-03T22:53:42.568Z,15.13
2017-09-03T22:56:11.616Z,15.10
2017-09-03T22:58:40.677Z,15.09
2017-09-03T23:01:09.756Z,15.05
2017-09-03T23:03:38.801Z,15.00
2017-09-03T23:06:07.861Z,14.94
2017-09-03T23:08:36.972Z,14.93
2017-09-03T23:11:06.218Z,14.89
2017-09-03T23:13:35.266Z,14.86
2017-09-03T23:16:04.341Z,14.86
2017-09-03T23:18:33.412Z,14.82
2017-09-03T23:21:02.495Z,14.77
2017-09-03T23:23:31.527Z,14.78
2017-09-03T23:26:00.579Z,14.78
2017-09-03T23:28:29.629Z,14.81
2017-09-03T23:30:58.730Z,14.77
2017-09-03T23:33:28.042Z,14.73
2017-09-03T23:35:57.365Z,14.74
2017-09-03T23:38:26.458Z,14.73
2017-09-03T23:40:55.517Z,14.75
2017-09-03T23:43:24.579Z,14.72
2017-09-03T23:45:53.657Z,14.69
2017-09-03T23:48:22.719Z,14.66
2017-09-03T23:50:51.788Z,14.70
2017-09-03T23:53:20.821Z,14.70
2017-09-03T23:55:49.916Z,14.66
2017-09-03T23:58:18.991Z,14.67
